createdAt,value
2023-02-07T00:00:22.175Z,5.50
2023-02-07T00:01:25.258Z,3.40
2023-02-07T00:02:28.443Z,3.85
2023-02-07T00:03:30.533Z,3.58
2023-02-07T00:04:33.599Z,3.53
2023-02-07T00:05:36.872Z,3.65
2023-02-07T00:06:40.051Z,4.20
2023-02-07T00:07:42.353Z,4.03
2023-02-07T00:08:45.898Z,4.60
2023-02-07T00:09:47.993Z,3.85
2023-02-07T00:10:52.370Z,5.97
2023-02-07T00:11:54.505Z,4.20
2023-02-07T00:12:57.510Z,3.80
2023-02-07T00:14:00.252Z,3.72
2023-02-07T00:15:03.361Z,4.38
2023-02-07T00:16:06.882Z,3.83
2023-02-07T00:17:09.909Z,3.92
2023-02-07T00:18:11.947Z,3.03
2023-02-07T00:19:14.978Z,3.22
2023-02-07T00:20:17.713Z,3.22
2023-02-07T00:21:23.876Z,3.40
2023-02-07T00:22:26.297Z,3.42
2023-02-07T00:23:29.836Z,2.83
2023-02-07T00:24:32.031Z,3.00
2023-02-07T00:25:35.225Z,3.30
2023-02-07T00:26:38.942Z,2.85
2023-02-07T00:27:41.916Z,3.45
2023-02-07T00:28:44.468Z,3.15
2023-02-07T00:29:47.492Z,2.80
2023-02-07T00:30:49.950Z,2.67
2023-02-07T00:31:52.996Z,3.33
2023-02-07T00:32:55.474Z,2.90
2023-02-07T00:34:01.381Z,2.70
2023-02-07T00:35:03.579Z,3.42
2023-02-07T00:36:09.068Z,3.03
2023-02-07T00:37:11.210Z,2.45
2023-02-07T00:38:14.224Z,3.20
2023-02-07T00:39:17.391Z,3.53
2023-02-07T00:40:21.225Z,2.72
2023-02-07T00:41:23.527Z,3.15
2023-02-07T00:42:27.944Z,3.20
2023-02-07T00:43:30.341Z,3.55
2023-02-07T00:44:33.769Z,2.72
2023-02-07T00:45:36.010Z,3.15
2023-02-07T00:46:40.147Z,2.58
2023-02-07T00:47:42.174Z,3.28
2023-02-07T00:48:45.503Z,3.25
2023-02-07T00:49:48.607Z,3.50
2023-02-07T00:50:50.886Z,2.90
2023-02-07T00:51:53.983Z,2.85
2023-02-07T00:52:56.014Z,3.42
2023-02-07T00:54:00.867Z,3.00
2023-02-07T00:55:02.947Z,2.80
2023-02-07T00:56:06.070Z,2.60
2023-02-07T00:57:08.154Z,3.08
2023-02-07T00:58:12.766Z,2.60
2023-02-07T00:59:14.813Z,2.90
2023-02-07T01:00:18.209Z,3.33
2023-02-07T01:01:22.497Z,3.15
2023-02-07T01:02:25.563Z,3.05
2023-02-07T01:03:27.794Z,3.05
2023-02-07T01:04:31.932Z,3.03
2023-02-07T01:05:34.021Z,3.60
2023-02-07T01:06:38.380Z,8.00
2023-02-07T01:07:40.438Z,3.10
2023-02-07T01:08:44.245Z,3.40
2023-02-07T01:09:46.327Z,2.85
2023-02-07T01:10:49.817Z,3.40
2023-02-07T01:11:51.818Z,3.10
2023-02-07T01:12:54.871Z,3.35
2023-02-07T01:14:00.850Z,3.53
2023-02-07T01:15:04.110Z,3.00
2023-02-07T01:16:06.698Z,3.20
2023-02-07T01:17:09.730Z,3.20
2023-02-07T01:18:11.926Z,3.28
2023-02-07T01:19:15.997Z,3.33
2023-02-07T01:20:19.291Z,4.07
2023-02-07T01:21:24.591Z,3.42
2023-02-07T01:22:27.079Z,3.35
2023-02-07T01:23:30.198Z,3.50
2023-02-07T01:24:32.331Z,3.50
2023-02-07T01:25:35.741Z,3.00
2023-02-07T01:26:39.859Z,3.47
2023-02-07T01:27:43.413Z,3.13
2023-02-07T01:28:46.209Z,3.30
2023-02-07T01:29:50.608Z,2.78
2023-02-07T01:30:52.663Z,5.20
2023-02-07T01:31:55.787Z,3.83
2023-02-07T01:32:58.005Z,2.83
2023-02-07T01:34:04.949Z,4.78
2023-02-07T01:35:08.006Z,3.35
2023-02-07T01:36:13.597Z,3.35
2023-02-07T01:37:16.610Z,3.53
2023-02-07T01:38:18.603Z,3.70
2023-02-07T01:39:21.571Z,3.97
2023-02-07T01:40:23.784Z,3.40
2023-02-07T01:41:28.227Z,3.58
2023-02-07T01:42:30.971Z,3.60
2023-02-07T01:43:34.323Z,3.85
2023-02-07T01:45:10.996Z,3.42
2023-02-07T01:46:14.107Z,4.00
2023-02-07T01:47:19.052Z,2.92
2023-02-07T01:48:26.044Z,3.95
2023-02-07T01:49:33.902Z,5.78
2023-02-07T01:50:38.374Z,3.65
2023-02-07T01:51:46.092Z,6.30
2023-02-07T01:52:49.255Z,3.92
2023-02-07T01:53:56.030Z,4.53
2023-02-07T01:55:02.576Z,4.45
2023-02-07T01:56:09.196Z,4.28
2023-02-07T01:57:14.493Z,4.07
2023-02-07T01:58:18.513Z,4.28
2023-02-07T01:59:22.060Z,3.92
2023-02-07T02:00:26.862Z,4.18
2023-02-07T02:01:29.151Z,4.45
2023-02-07T02:02:35.975Z,4.32
2023-02-07T02:03:42.978Z,4.22
2023-02-07T02:04:46.254Z,4.13
2023-02-07T02:05:50.136Z,6.13
2023-02-07T02:06:53.783Z,4.13
2023-02-07T02:07:56.092Z,4.20
2023-02-07T02:09:01.961Z,4.00
2023-02-07T02:10:07.350Z,3.95
2023-02-07T02:11:34.440Z,4.30
2023-02-07T02:12:55.814Z,3.80
2023-02-07T02:14:06.369Z,4.40
2023-02-07T02:15:20.075Z,4.78
2023-02-07T02:16:30.098Z,4.35
2023-02-07T02:17:43.112Z,4.75
2023-02-07T02:19:16.147Z,4.20
2023-02-07T02:20:54.048Z,4.50
2023-02-07T02:22:20.684Z,4.00
2023-02-07T02:23:35.972Z,4.07
2023-02-07T02:25:08.936Z,4.13
2023-02-07T02:26:48.805Z,4.28
2023-02-07T02:28:08.095Z,4.65
2023-02-07T02:29:52.799Z,3.90
2023-02-07T02:31:22.346Z,8.68
2023-02-07T02:32:58.837Z,3.80
2023-02-07T02:34:07.272Z,5.28
2023-02-07T02:35:16.916Z,4.60
2023-02-07T02:36:26.775Z,4.50
2023-02-07T02:37:40.968Z,3.40
2023-02-07T02:38:49.375Z,4.35
2023-02-07T02:40:01.422Z,5.07
2023-02-07T02:41:08.172Z,4.30
2023-02-07T02:42:17.850Z,4.38
2023-02-07T02:43:31.419Z,4.78
2023-02-07T02:44:39.179Z,4.35
2023-02-07T02:45:44.648Z,4.45
2023-02-07T02:46:49.760Z,5.22
2023-02-07T02:47:52.961Z,4.63
2023-02-07T02:48:57.186Z,4.95
2023-02-07T02:50:00.705Z,5.82
2023-02-07T02:51:05.124Z,4.93
2023-02-07T02:52:07.824Z,4.70
2023-02-07T02:53:11.129Z,4.60
2023-02-07T02:54:28.447Z,7.45
2023-02-07T02:56:02.883Z,5.28
2023-02-07T02:57:27.522Z,4.65
2023-02-07T02:58:40.304Z,4.47
2023-02-07T02:59:58.230Z,5.65
2023-02-07T03:01:14.865Z,4.50
2023-02-07T03:02:25.292Z,4.22
2023-02-07T03:03:56.328Z,4.45
2023-02-07T03:05:15.333Z,4.10
2023-02-07T03:06:30.634Z,3.83
2023-02-07T03:07:49.473Z,4.10
2023-02-07T03:08:58.502Z,9.63
2023-02-07T03:10:08.809Z,5.10
2023-02-07T03:11:14.005Z,5.03
2023-02-07T03:12:21.233Z,4.43
2023-02-07T03:13:28.796Z,4.72
2023-02-07T03:14:44.596Z,5.68
2023-02-07T03:15:57.956Z,4.70
2023-02-07T03:17:09.713Z,4.40
2023-02-07T03:18:17.895Z,5.50
2023-02-07T03:19:25.887Z,5.70
2023-02-07T03:20:33.466Z,6.25
2023-02-07T03:21:42.171Z,5.55
2023-02-07T03:22:45.239Z,5.35
2023-02-07T03:23:50.250Z,4.10
2023-02-07T03:24:56.364Z,9.65
2023-02-07T03:26:03.069Z,4.82
2023-02-07T03:27:11.302Z,4.30
2023-02-07T03:28:15.637Z,4.70
2023-02-07T03:29:20.887Z,4.30
2023-02-07T03:30:27.757Z,3.95
2023-02-07T03:31:31.777Z,4.43
2023-02-07T03:32:39.360Z,4.28
2023-02-07T03:33:42.281Z,4.40
2023-02-07T03:34:53.699Z,4.90
2023-02-07T03:36:02.340Z,5.25
2023-02-07T03:37:09.984Z,4.55
2023-02-07T03:38:12.473Z,5.63
2023-02-07T03:39:15.559Z,3.88
2023-02-07T03:40:18.313Z,6.47
2023-02-07T03:41:28.726Z,4.93
2023-02-07T03:42:35.069Z,6.57
2023-02-07T03:43:41.055Z,4.90
2023-02-07T03:44:44.676Z,6.10
2023-02-07T03:45:47.768Z,4.60
2023-02-07T03:46:51.151Z,4.68
2023-02-07T03:47:54.206Z,5.10
2023-02-07T03:48:56.178Z,5.20
2023-02-07T03:49:59.249Z,4.35
2023-02-07T03:51:02.751Z,5.03
2023-02-07T03:52:06.004Z,7.78
2023-02-07T03:53:08.654Z,5.97
2023-02-07T03:54:11.863Z,4.30
2023-02-07T03:55:13.954Z,4.53
2023-02-07T03:56:16.969Z,4.15
2023-02-07T03:57:19.121Z,9.07
2023-02-07T03:58:22.208Z,7.38
2023-02-07T03:59:24.245Z,4.60
2023-02-07T04:00:27.575Z,5.38
2023-02-07T04:01:29.873Z,5.07
2023-02-07T04:02:32.878Z,5.45
2023-02-07T04:03:35.085Z,6.80
2023-02-07T04:04:38.388Z,4.43
2023-02-07T04:05:40.610Z,5.45
2023-02-07T04:06:45.022Z,6.80
2023-02-07T04:07:49.506Z,5.13
2023-02-07T04:08:52.551Z,4.10
2023-02-07T04:09:54.618Z,5.38
2023-02-07T04:10:58.845Z,4.85
2023-02-07T04:12:00.954Z,4.45
2023-02-07T04:13:04.613Z,5.35
2023-02-07T04:14:06.961Z,4.55
2023-02-07T04:15:10.921Z,4.82
2023-02-07T04:16:12.979Z,4.60
2023-02-07T04:17:15.972Z,4.72
2023-02-07T04:18:18.293Z,5.60
2023-02-07T04:19:21.348Z,4.50
2023-02-07T04:20:23.401Z,6.88
2023-02-07T04:21:26.477Z,7.20
2023-02-07T04:22:31.152Z,8.95
2023-02-07T04:23:34.198Z,6.82
2023-02-07T04:24:37.201Z,5.25
2023-02-07T04:25:39.506Z,8.45
2023-02-07T04:26:42.710Z,5.38
2023-02-07T04:27:45.205Z,7.68
2023-02-07T04:28:48.207Z,5.03
2023-02-07T04:29:50.386Z,6.32
2023-02-07T04:30:53.670Z,5.68
2023-02-07T04:31:58.548Z,10.25
2023-02-07T04:33:01.853Z,4.45
2023-02-07T04:34:04.106Z,5.32
2023-02-07T04:35:07.774Z,5.47
2023-02-07T04:36:10.090Z,4.93
2023-02-07T04:37:13.202Z,5.55
2023-02-07T04:38:17.541Z,4.97
2023-02-07T04:39:19.890Z,7.40
2023-02-07T04:40:22.902Z,5.72
2023-02-07T04:41:25.000Z,6.07
2023-02-07T04:42:27.988Z,6.03
2023-02-07T04:43:30.382Z,5.72
2023-02-07T04:44:33.406Z,6.07
2023-02-07T04:45:35.608Z,5.88
2023-02-07T04:46:38.795Z,6.75
2023-02-07T04:47:40.939Z,8.10
2023-02-07T04:48:43.966Z,6.07
2023-02-07T04:49:45.970Z,5.60
2023-02-07T04:50:49.238Z,5.20
2023-02-07T04:51:51.451Z,5.85
2023-02-07T04:52:54.439Z,5.85
2023-02-07T04:53:59.213Z,6.03
2023-02-07T04:55:01.217Z,7.18
2023-02-07T04:56:04.396Z,5.57
2023-02-07T04:57:07.411Z,5.40
2023-02-07T04:58:09.512Z,7.47
2023-02-07T04:59:12.533Z,5.63
2023-02-07T05:00:15.361Z,5.55
2023-02-07T05:01:18.677Z,6.63
2023-02-07T05:02:20.730Z,4.90
2023-02-07T05:03:23.925Z,6.63
2023-02-07T05:04:26.283Z,5.75
2023-02-07T05:05:29.437Z,6.80
2023-02-07T05:06:31.517Z,7.68
2023-02-07T05:07:34.601Z,6.13
2023-02-07T05:08:37.557Z,7.43
2023-02-07T05:09:42.070Z,8.75
2023-02-07T05:10:44.127Z,6.28
2023-02-07T05:11:47.134Z,6.55
2023-02-07T05:12:49.352Z,6.32
2023-02-07T05:13:52.387Z,6.57
2023-02-07T05:14:54.396Z,6.90
2023-02-07T05:15:57.403Z,7.03
2023-02-07T05:16:59.435Z,7.57
2023-02-07T05:18:02.760Z,5.53
2023-02-07T05:19:05.871Z,5.18
2023-02-07T05:20:08.994Z,6.10
2023-02-07T05:21:12.377Z,6.15
2023-02-07T05:22:14.425Z,6.15
2023-02-07T05:23:17.463Z,5.53
2023-02-07T05:24:19.636Z,5.45
2023-02-07T05:25:24.231Z,6.18
2023-02-07T05:26:26.415Z,7.82
2023-02-07T05:27:29.433Z,6.35
2023-02-07T05:28:32.589Z,6.18
2023-02-07T05:29:35.611Z,6.53
2023-02-07T05:30:37.804Z,5.70
2023-02-07T05:31:58.341Z,6.22
2023-02-07T05:33:07.107Z,5.65
2023-02-07T05:34:09.132Z,6.25
2023-02-07T05:35:12.318Z,5.72
2023-02-07T05:36:15.324Z,6.68
2023-02-07T05:37:17.423Z,7.40
2023-02-07T05:38:20.960Z,6.25
2023-02-07T05:39:23.190Z,6.13
2023-02-07T05:40:27.701Z,7.80
2023-02-07T05:41:29.813Z,6.93
2023-02-07T05:42:32.905Z,6.80
2023-02-07T05:43:35.954Z,6.70
2023-02-07T05:44:37.947Z,6.65
2023-02-07T05:45:41.707Z,6.00
2023-02-07T05:46:43.864Z,6.47
2023-02-07T05:47:46.895Z,7.75
2023-02-07T05:48:49.661Z,6.18
2023-02-07T05:49:52.665Z,8.90
2023-02-07T05:50:55.749Z,5.90
2023-02-07T05:51:57.846Z,10.20
2023-02-07T05:53:00.865Z,6.20
2023-02-07T05:54:02.939Z,8.98
2023-02-07T05:55:06.653Z,6.70
2023-02-07T05:56:10.037Z,6.75
2023-02-07T05:57:13.067Z,6.13
2023-02-07T05:58:16.066Z,7.30
2023-02-07T05:59:20.328Z,6.60
2023-02-07T06:00:23.738Z,6.00
2023-02-07T06:01:25.825Z,6.25
2023-02-07T06:02:28.982Z,6.13
2023-02-07T06:03:32.048Z,6.30
2023-02-07T06:04:34.334Z,6.40
2023-02-07T06:05:37.671Z,6.72
2023-02-07T06:06:39.984Z,6.43
2023-02-07T06:07:44.048Z,5.97
2023-02-07T06:08:46.082Z,6.57
2023-02-07T06:09:49.137Z,6.80
2023-02-07T06:10:51.300Z,6.00
2023-02-07T06:11:56.430Z,6.38
2023-02-07T06:12:58.523Z,6.88
2023-02-07T06:14:01.949Z,7.72
2023-02-07T06:15:04.408Z,7.93
2023-02-07T06:16:09.856Z,7.50
2023-02-07T06:17:11.940Z,6.93
2023-02-07T06:18:14.966Z,9.32
2023-02-07T06:19:16.988Z,5.93
2023-02-07T06:20:20.373Z,8.40
2023-02-07T06:21:22.503Z,5.72
2023-02-07T06:22:25.599Z,7.90
2023-02-07T06:23:27.608Z,6.32
2023-02-07T06:24:30.594Z,6.22
2023-02-07T06:25:33.638Z,7.35
2023-02-07T06:26:35.864Z,7.68
2023-02-07T06:27:41.451Z,6.65
2023-02-07T06:28:43.705Z,8.18
2023-02-07T06:29:46.701Z,6.75
2023-02-07T06:30:50.718Z,7.20
2023-02-07T06:31:53.755Z,10.68
2023-02-07T06:32:55.865Z,7.78
2023-02-07T06:33:58.821Z,7.63
2023-02-07T06:35:01.109Z,6.80
2023-02-07T06:36:04.498Z,8.52
2023-02-07T06:37:06.543Z,7.35
2023-02-07T06:38:09.621Z,8.07
2023-02-07T06:39:12.766Z,8.27
2023-02-07T06:40:15.760Z,6.97
2023-02-07T06:41:17.787Z,7.13
2023-02-07T06:42:22.128Z,6.63
2023-02-07T06:43:25.596Z,10.65
2023-02-07T06:44:28.595Z,5.93
2023-02-07T06:45:30.739Z,7.10
2023-02-07T06:46:33.941Z,8.35
2023-02-07T06:47:36.061Z,6.80
2023-02-07T06:48:39.093Z,6.10
2023-02-07T06:49:42.075Z,6.13
2023-02-07T06:50:45.231Z,6.57
2023-02-07T06:51:47.287Z,9.07
2023-02-07T06:52:50.506Z,7.28
2023-02-07T06:53:52.560Z,6.18
2023-02-07T06:54:55.565Z,11.32
2023-02-07T06:55:57.839Z,6.55
2023-02-07T06:57:00.920Z,6.38
2023-02-07T06:58:03.224Z,6.55
2023-02-07T06:59:07.575Z,8.05
2023-02-07T07:00:10.775Z,8.57
2023-02-07T07:01:19.939Z,6.97
2023-02-07T07:02:23.025Z,7.80
2023-02-07T07:03:28.728Z,9.38
2023-02-07T07:04:31.941Z,6.60
2023-02-07T07:05:35.027Z,7.90
2023-02-07T07:06:37.116Z,6.82
2023-02-07T07:07:40.423Z,14.52
2023-02-07T07:08:42.494Z,6.55
2023-02-07T07:09:45.494Z,5.95
2023-02-07T07:10:47.608Z,8.95
2023-02-07T07:11:50.628Z,7.95
2023-02-07T07:12:52.668Z,6.78
2023-02-07T07:13:55.817Z,8.25
2023-02-07T07:15:00.368Z,8.60
2023-02-07T07:16:03.455Z,7.20
2023-02-07T07:17:06.586Z,10.73
2023-02-07T07:18:08.624Z,6.93
2023-02-07T07:19:12.143Z,7.32
2023-02-07T07:20:14.251Z,7.07
2023-02-07T07:21:18.174Z,7.38
2023-02-07T07:22:21.160Z,6.95
2023-02-07T07:23:24.455Z,6.82
2023-02-07T07:24:28.210Z,8.35
2023-02-07T07:25:30.245Z,6.68
2023-02-07T07:26:48.000Z,6.50
2023-02-07T07:27:53.701Z,7.07
2023-02-07T07:29:00.080Z,6.32
2023-02-07T07:30:05.523Z,10.27
2023-02-07T07:31:08.790Z,6.20
2023-02-07T07:32:22.316Z,7.13
2023-02-07T07:33:31.706Z,10.45
2023-02-07T07:34:34.955Z,8.50
2023-02-07T07:35:38.361Z,11.85
2023-02-07T07:36:41.690Z,6.75
2023-02-07T07:37:44.696Z,7.22
2023-02-07T07:38:48.012Z,6.63
2023-02-07T07:39:50.426Z,6.68
2023-02-07T07:40:53.670Z,6.47
2023-02-07T07:41:57.510Z,6.72
2023-02-07T07:43:27.702Z,9.65
2023-02-07T07:44:30.108Z,7.22
2023-02-07T07:45:34.646Z,6.97
2023-02-07T07:46:37.801Z,7.40
2023-02-07T07:47:40.933Z,6.38
2023-02-07T07:48:43.898Z,6.18
2023-02-07T07:49:45.985Z,6.95
2023-02-07T07:50:49.120Z,11.30
2023-02-07T07:51:52.095Z,6.07
2023-02-07T07:52:55.122Z,6.68
2023-02-07T07:53:58.248Z,6.95
2023-02-07T07:55:02.084Z,7.00
2023-02-07T07:56:05.965Z,6.97
2023-02-07T07:57:08.929Z,7.90
2023-02-07T07:58:10.929Z,6.70
2023-02-07T07:59:23.583Z,7.55
2023-02-07T08:00:27.169Z,7.40
2023-02-07T08:01:31.588Z,6.57
2023-02-07T08:02:34.560Z,10.80
2023-02-07T08:03:37.654Z,7.63
2023-02-07T08:04:39.713Z,9.77
2023-02-07T08:05:43.184Z,7.13
2023-02-07T08:06:45.735Z,5.30
2023-02-07T08:07:48.858Z,5.93
2023-02-07T08:08:51.858Z,12.82
2023-02-07T08:09:54.857Z,6.38
2023-02-07T08:11:02.506Z,5.97
2023-02-07T08:12:05.847Z,6.72
2023-02-07T08:13:09.030Z,6.18
2023-02-07T08:14:12.039Z,5.63
2023-02-07T08:15:15.036Z,6.00
2023-02-07T08:16:18.507Z,9.23
2023-02-07T08:17:21.904Z,5.97
2023-02-07T08:18:24.955Z,6.63
2023-02-07T08:19:27.233Z,8.70
2023-02-07T08:20:30.367Z,7.03
2023-02-07T08:21:32.513Z,6.53
2023-02-07T08:22:35.605Z,7.40
2023-02-07T08:23:38.851Z,10.65
2023-02-07T08:24:41.922Z,7.75
2023-02-07T08:25:46.452Z,8.40
2023-02-07T08:26:48.579Z,8.32
2023-02-07T08:27:51.638Z,11.52
2023-02-07T08:28:55.225Z,10.70
2023-02-07T08:29:58.367Z,7.55
2023-02-07T08:31:02.302Z,11.65
2023-02-07T08:32:05.439Z,7.28
2023-02-07T08:33:10.815Z,6.95
2023-02-07T08:34:12.836Z,7.05
2023-02-07T08:35:15.931Z,7.40
2023-02-07T08:36:19.339Z,7.22
2023-02-07T08:37:22.544Z,7.18
2023-02-07T08:38:25.739Z,7.55
2023-02-07T08:39:28.689Z,7.82
2023-02-07T08:40:32.450Z,7.78
2023-02-07T08:41:34.472Z,8.30
2023-02-07T08:42:37.567Z,7.80
2023-02-07T08:43:40.443Z,7.50
2023-02-07T08:44:43.460Z,13.02
2023-02-07T08:45:49.610Z,7.78
2023-02-07T08:46:51.686Z,8.40
2023-02-07T08:47:54.757Z,7.30
2023-02-07T08:48:58.120Z,7.50
2023-02-07T08:50:01.172Z,7.90
2023-02-07T08:51:05.940Z,7.95
2023-02-07T08:52:09.534Z,7.13
2023-02-07T08:53:12.781Z,11.35
2023-02-07T08:54:15.780Z,10.02
2023-02-07T08:55:18.897Z,9.23
2023-02-07T08:56:23.488Z,6.88
2023-02-07T08:57:26.503Z,6.93
2023-02-07T08:58:29.880Z,6.97
2023-02-07T08:59:33.213Z,7.80
2023-02-07T09:00:36.676Z,7.25
2023-02-07T09:01:39.736Z,7.20
2023-02-07T09:02:43.493Z,7.10
2023-02-07T09:03:46.569Z,7.70
2023-02-07T09:04:51.739Z,8.18
2023-02-07T09:05:59.221Z,8.75
2023-02-07T09:07:02.230Z,7.57
2023-02-07T09:08:05.639Z,8.05
2023-02-07T09:09:09.760Z,7.70
2023-02-07T09:10:12.938Z,7.57
2023-02-07T09:11:16.360Z,6.57
2023-02-07T09:12:19.406Z,8.07
2023-02-07T09:13:22.396Z,8.60
2023-02-07T09:14:25.521Z,7.47
2023-02-07T09:15:28.540Z,7.57
2023-02-07T09:16:31.739Z,7.55
2023-02-07T09:17:34.885Z,7.47
2023-02-07T09:18:37.930Z,8.43
2023-02-07T09:19:40.901Z,7.10
2023-02-07T09:20:46.507Z,7.70
2023-02-07T09:21:49.611Z,7.25
2023-02-07T09:23:09.994Z,7.93
2023-02-07T09:24:13.074Z,6.95
2023-02-07T09:25:16.257Z,10.77
2023-02-07T09:26:21.615Z,7.45
2023-02-07T09:27:23.671Z,7.33
2023-02-07T09:28:26.625Z,7.75
2023-02-07T09:29:29.889Z,9.32
2023-02-07T09:30:32.000Z,7.15
2023-02-07T09:31:35.978Z,7.65
2023-02-07T09:32:39.031Z,7.78
2023-02-07T09:33:42.641Z,8.02
2023-02-07T09:34:45.803Z,7.53
2023-02-07T09:35:51.435Z,7.37
2023-02-07T09:36:54.806Z,7.30
2023-02-07T09:37:57.949Z,12.77
2023-02-07T09:39:01.515Z,7.13
2023-02-07T09:40:05.487Z,7.93
2023-02-07T09:41:21.614Z,8.00
2023-02-07T09:42:33.896Z,7.63
2023-02-07T09:43:46.642Z,13.10
2023-02-07T09:44:55.466Z,7.37
2023-02-07T09:46:03.146Z,9.00
2023-02-07T09:47:11.163Z,8.40
2023-02-07T09:48:20.551Z,7.73
2023-02-07T09:49:37.734Z,7.27
2023-02-07T09:50:48.423Z,7.53
2023-02-07T09:51:54.326Z,7.30
2023-02-07T09:53:01.596Z,7.63
2023-02-07T09:54:07.501Z,8.33
2023-02-07T09:55:19.015Z,7.70
2023-02-07T09:56:25.484Z,6.40
2023-02-07T09:57:37.499Z,6.63
2023-02-07T09:58:45.557Z,7.60
2023-02-07T09:59:54.345Z,8.93
2023-02-07T10:01:04.757Z,6.27
2023-02-07T10:02:22.528Z,8.50
2023-02-07T10:03:26.494Z,8.13
2023-02-07T10:04:36.028Z,7.10
2023-02-07T10:05:45.615Z,7.37
2023-02-07T10:06:53.671Z,7.40
2023-02-07T10:07:56.756Z,8.87
2023-02-07T10:09:01.649Z,6.67
2023-02-07T10:10:05.253Z,6.97
2023-02-07T10:11:18.002Z,6.57
2023-02-07T10:12:49.048Z,6.77
2023-02-07T10:14:04.087Z,8.57
2023-02-07T10:15:32.920Z,6.97
2023-02-07T10:16:57.769Z,7.97
2023-02-07T10:18:30.174Z,7.63
2023-02-07T10:19:43.470Z,10.23
2023-02-07T10:20:52.093Z,8.07
2023-02-07T10:22:08.046Z,10.70
2023-02-07T10:23:25.329Z,7.70
2023-02-07T10:24:45.850Z,8.13
2023-02-07T10:26:00.317Z,8.60
2023-02-07T10:27:09.493Z,7.17
2023-02-07T10:28:37.059Z,8.30
2023-02-07T10:29:52.082Z,6.97
2023-02-07T10:30:59.525Z,7.87
2023-02-07T10:32:11.024Z,7.77
2023-02-07T10:33:16.725Z,7.73
2023-02-07T10:34:22.884Z,6.97
2023-02-07T10:35:32.095Z,9.77
2023-02-07T10:36:35.513Z,6.97
2023-02-07T10:37:40.161Z,9.73
2023-02-07T10:38:52.113Z,8.10
2023-02-07T10:40:04.437Z,8.13
2023-02-07T10:41:14.868Z,8.40
2023-02-07T10:42:20.178Z,8.40
2023-02-07T10:43:29.283Z,6.80
2023-02-07T10:44:32.890Z,7.67
2023-02-07T10:45:35.952Z,7.10
2023-02-07T10:46:40.700Z,8.13
2023-02-07T10:47:43.833Z,6.10
2023-02-07T10:48:47.424Z,7.83
2023-02-07T10:49:54.250Z,7.53
2023-02-07T10:50:57.506Z,10.37
2023-02-07T10:52:04.261Z,8.10
2023-02-07T10:53:09.550Z,6.83
2023-02-07T10:54:16.505Z,6.30
2023-02-07T10:55:21.948Z,7.63
2023-02-07T10:56:28.184Z,6.77
2023-02-07T10:57:32.243Z,6.63
2023-02-07T10:58:39.981Z,5.83
2023-02-07T10:59:46.437Z,8.00
2023-02-07T11:00:51.391Z,6.03
2023-02-07T11:01:54.343Z,7.87
2023-02-07T11:03:03.431Z,5.97
2023-02-07T11:04:24.116Z,6.73
2023-02-07T11:05:30.937Z,6.73
2023-02-07T11:06:35.758Z,6.57
2023-02-07T11:07:47.503Z,6.23
2023-02-07T11:08:52.191Z,6.90
2023-02-07T11:10:16.414Z,7.43
2023-02-07T11:11:28.226Z,7.53
2023-02-07T11:12:31.216Z,8.33
2023-02-07T11:13:48.644Z,6.77
2023-02-07T11:15:02.271Z,8.03
2023-02-07T11:16:08.597Z,8.40
2023-02-07T11:17:22.114Z,7.10
2023-02-07T11:18:37.670Z,7.60
2023-02-07T11:19:40.747Z,7.47
2023-02-07T11:20:42.848Z,6.37
2023-02-07T11:21:48.378Z,6.60
2023-02-07T11:22:52.357Z,9.40
2023-02-07T11:24:00.826Z,6.53
2023-02-07T11:25:06.374Z,6.93
2023-02-07T11:26:10.327Z,6.93
2023-02-07T11:27:16.516Z,7.47
2023-02-07T11:28:22.696Z,9.03
2023-02-07T11:29:26.805Z,7.33
2023-02-07T11:30:34.640Z,7.00
2023-02-07T11:31:38.061Z,6.77
2023-02-07T11:32:41.738Z,7.40
2023-02-07T11:33:45.097Z,7.70
2023-02-07T11:34:52.465Z,7.70
2023-02-07T11:36:11.335Z,9.70
2023-02-07T11:37:29.135Z,7.33
2023-02-07T11:38:33.009Z,7.30
2023-02-07T11:39:37.743Z,13.07
2023-02-07T11:40:47.915Z,8.97
2023-02-07T11:41:59.211Z,7.67
2023-02-07T11:43:04.728Z,6.30
2023-02-07T11:44:18.757Z,6.43
2023-02-07T11:45:23.605Z,6.43
2023-02-07T11:46:35.418Z,6.50
2023-02-07T11:47:38.505Z,7.00
2023-02-07T11:48:41.609Z,8.40
2023-02-07T11:49:48.119Z,6.53
2023-02-07T11:50:56.254Z,7.87
2023-02-07T11:52:01.485Z,7.10
2023-02-07T11:53:04.680Z,8.47
2023-02-07T11:54:07.790Z,7.80
2023-02-07T11:55:19.091Z,8.30
2023-02-07T11:56:25.483Z,10.47
2023-02-07T11:57:31.057Z,8.20
2023-02-07T11:58:37.373Z,6.63
2023-02-07T11:59:49.146Z,6.70
2023-02-07T12:00:52.345Z,7.43
2023-02-07T12:01:57.710Z,7.53
2023-02-07T12:03:03.678Z,7.10
2023-02-07T12:04:11.215Z,8.23
2023-02-07T12:05:21.350Z,9.23
2023-02-07T12:06:29.140Z,6.97
2023-02-07T12:07:40.514Z,6.87
2023-02-07T12:08:45.111Z,6.30
2023-02-07T12:09:52.524Z,6.83
2023-02-07T12:11:00.427Z,6.53
2023-02-07T12:12:05.443Z,7.93
2023-02-07T12:13:13.488Z,7.30
2023-02-07T12:14:23.701Z,7.30
2023-02-07T12:15:33.148Z,8.30
2023-02-07T12:16:43.135Z,6.30
2023-02-07T12:17:57.961Z,8.27
2023-02-07T12:19:05.862Z,6.23
2023-02-07T12:20:17.631Z,8.50
2023-02-07T12:21:24.827Z,6.87
2023-02-07T12:22:36.481Z,5.77
2023-02-07T12:23:46.120Z,7.30
2023-02-07T12:24:54.764Z,6.13
2023-02-07T12:26:04.256Z,7.43
2023-02-07T12:27:15.347Z,6.80
2023-02-07T12:28:25.689Z,8.10
2023-02-07T12:29:40.875Z,7.37
2023-02-07T12:30:47.915Z,6.60
2023-02-07T12:31:58.853Z,6.30
2023-02-07T12:33:10.972Z,6.10
2023-02-07T12:34:21.214Z,7.43
2023-02-07T12:35:29.370Z,6.93
2023-02-07T12:36:37.407Z,9.37
2023-02-07T12:37:44.579Z,7.83
2023-02-07T12:38:56.548Z,8.77
2023-02-07T12:40:05.538Z,7.97
2023-02-07T12:41:15.743Z,8.07
2023-02-07T12:42:35.261Z,8.43
2023-02-07T12:43:41.689Z,10.00
2023-02-07T12:44:53.064Z,8.67
2023-02-07T12:46:11.786Z,8.67
2023-02-07T12:47:25.792Z,8.30
2023-02-07T12:48:42.005Z,11.17
2023-02-07T12:50:13.409Z,8.33
2023-02-07T12:51:29.667Z,8.77
2023-02-07T12:52:43.034Z,8.53
2023-02-07T12:54:01.298Z,9.77
2023-02-07T12:55:21.287Z,10.97
2023-02-07T12:56:40.308Z,8.43
2023-02-07T12:57:53.220Z,9.33
2023-02-07T12:59:07.763Z,8.20
2023-02-07T13:00:17.755Z,9.50
2023-02-07T13:01:29.893Z,9.23
2023-02-07T13:02:44.280Z,8.83
2023-02-07T13:04:20.743Z,8.33
2023-02-07T13:05:37.886Z,9.37
2023-02-07T13:06:49.145Z,9.03
2023-02-07T13:07:58.565Z,9.40
2023-02-07T13:09:11.205Z,13.63
2023-02-07T13:10:23.724Z,9.43
2023-02-07T13:11:38.464Z,9.07
2023-02-07T13:12:46.638Z,9.73
2023-02-07T13:14:01.753Z,8.60
2023-02-07T13:15:15.988Z,8.33
2023-02-07T13:16:24.935Z,8.70
2023-02-07T13:17:39.501Z,8.57
2023-02-07T13:18:48.964Z,10.37
2023-02-07T13:19:57.177Z,9.47
2023-02-07T13:21:11.252Z,8.90
2023-02-07T13:22:30.005Z,9.67
2023-02-07T13:23:36.914Z,8.83
2023-02-07T13:24:43.622Z,9.13
2023-02-07T13:25:50.226Z,8.87
2023-02-07T13:26:58.204Z,9.10
2023-02-07T13:28:06.355Z,10.10
2023-02-07T13:29:15.126Z,8.87
2023-02-07T13:30:19.343Z,9.87
2023-02-07T13:31:26.086Z,12.50
2023-02-07T13:32:29.670Z,9.30
2023-02-07T13:33:36.853Z,9.87
2023-02-07T13:34:45.075Z,9.20
2023-02-07T13:35:51.054Z,9.37
2023-02-07T13:36:54.121Z,8.13
2023-02-07T13:38:04.895Z,9.43
2023-02-07T13:39:20.968Z,8.63
2023-02-07T13:40:31.537Z,8.23
2023-02-07T13:41:44.525Z,8.80
2023-02-07T13:42:55.972Z,11.50
2023-02-07T13:44:09.693Z,9.40
2023-02-07T13:45:20.085Z,9.60
2023-02-07T13:46:57.030Z,11.23
2023-02-07T13:48:05.397Z,10.17
2023-02-07T13:49:17.554Z,10.83
2023-02-07T13:50:34.255Z,8.63
2023-02-07T13:51:44.575Z,9.90
2023-02-07T13:52:55.910Z,11.07
2023-02-07T13:54:08.650Z,8.77
2023-02-07T13:55:25.332Z,10.10
2023-02-07T13:56:51.387Z,9.07
2023-02-07T13:58:14.175Z,8.47
2023-02-07T13:59:39.891Z,8.90
2023-02-07T14:01:10.819Z,9.57
2023-02-07T14:02:20.073Z,9.50
2023-02-07T14:03:28.696Z,9.07
2023-02-07T14:04:48.095Z,8.80
2023-02-07T14:05:52.439Z,10.47
2023-02-07T14:07:05.341Z,9.10
2023-02-07T14:08:24.829Z,8.73
2023-02-07T14:09:34.807Z,9.47
2023-02-07T14:10:45.692Z,8.83
2023-02-07T14:11:50.967Z,9.07
2023-02-07T14:12:55.331Z,8.63
2023-02-07T14:14:15.136Z,10.93
2023-02-07T14:15:55.869Z,13.73
2023-02-07T14:17:00.917Z,8.17
2023-02-07T14:18:05.700Z,9.20
2023-02-07T14:19:13.435Z,9.20
2023-02-07T14:20:49.380Z,9.70
2023-02-07T14:22:15.728Z,10.23
2023-02-07T14:23:20.758Z,9.70
2023-02-07T14:24:33.928Z,10.50
2023-02-07T14:25:41.232Z,14.37
2023-02-07T14:27:04.462Z,9.80
2023-02-07T14:28:32.104Z,9.00
2023-02-07T14:30:16.318Z,10.37
2023-02-07T14:31:24.080Z,9.33
2023-02-07T14:32:43.690Z,11.93
2023-02-07T14:34:13.949Z,9.63
2023-02-07T14:35:36.627Z,9.13
2023-02-07T14:36:39.654Z,12.00
2023-02-07T14:37:48.834Z,9.07
2023-02-07T14:39:08.997Z,11.20
2023-02-07T14:40:20.680Z,8.93
2023-02-07T14:41:30.106Z,9.10
2023-02-07T14:42:32.276Z,10.47
2023-02-07T14:44:09.096Z,10.93
2023-02-07T14:45:20.188Z,10.50
2023-02-07T14:46:31.181Z,11.33
2023-02-07T14:47:37.003Z,11.37
2023-02-07T14:48:51.946Z,9.13